Airfield :
LOGIN :

Register | Disclaimer

   EN    FR    IT 

 










Legend :    VFR   Marginal VFR   IFR   Intensive IFR   Very Intensive IFR
Visi :
Ceiling :
>= 8 km
>= 3000ft
5 to 8 km
1000 to 3000 ft
1500m to 5 km
500 to 1000 ft
800 to 1500m
200 to 500 ft
< 800m
< 200 ft
Symbols :   Thunderstorms  Fog  Heavy snow  Heavy precipitations  Wind > 20 kt
SIGMETs :     Misc.  Thunderstorms  Icing  Turbulence  Mountain Waves  Volcanic Ashes






- Airport Elevation : 1363 ft


ETIC - Grafenwohr Army Air Field

CURRENT METAR :
  • 171756Z AUTO 00000KT 9999 FEW030 SCT050 OVC070 14/12 A2997 RMK AO2 RAB20E25DZB25E30DZB30E30 SLP149 P0000 60000 T01380118 10162 20138 55002 $

EXPIRED METARs :
  • 171730Z AUTO 00000KT 9999 BKN032 OVC070 14/12 A2997 RMK AO2 RAB20E25DZB25E30DZB30 SLP149 $
  • 171720Z AUTO 00000KT 9999 -RA SCT032 OVC065 14/11 A2997 RMK AO2 RAB20 SLP149 $
  • 171656Z AUTO 00000KT 9999 SCT031 OVC070 15/11 A2998 RMK AO2 SLP152 T01480114 $

TAF TAF ETIC
Valid from the 17 at 18:00 until the 19 at 00:00 UTC


171800Z 1718/1824 VRB03KT 9999 SCT050 BKN070 QNH2998INS
BECMG 1803/1804 VRB06KT 3200 BR BKN030 QNH3000INS
TEMPO 1804/1806 1600 BR
BECMG 1806/1807 30006KT 9999 NSW BKN020 QNH3001INS
BECMG 1811/1812 35006KT 9999 BKN040 QNH2999INS TX17/1812Z TN09/1803Z



MET'MAP, your aeronautical weather chart ! - Copyright ORBIFLY December 2007 - Disclaimer

ORBIFLY MET'MAP TEAM :

Programming & Development : Alexandra Zaïnal
Concept & original design : Baudouin d'Aumeries
Assistance for programming : Marc-Olivier Méhu
Technical & hardware support : Manuel Goepfert

Contact : metmap@orbifly.com




SOURCES & CREDITS :

   NOAA